Time;durP1;ratioP1;P1;durP2;ratioP2;P2;SDS_P1;SDS_P2;PMS_P1;PMS_P2;Temp;Humidity;BMP_temperature;BMP_pressure;BME280_temperature;BME280_humidity;BME280_pressure;Samples;Min_cycle;Max_cycle;Signal;HPM_P1;HPM_P2
2024/02/12 00:00:58;;;;;;;39.10;35.70;;;;;;;;;;5100268;28;20433;-79
2024/02/12 00:03:26;;;;;;;40.27;36.87;;;;;;;;;;5100543;28;20437;-80
2024/02/12 00:05:55;;;;;;;39.23;36.10;;;;;;;;;;5100277;28;20456;-80
2024/02/12 00:08:22;;;;;;;37.53;34.67;;;;;;;;;;5098959;28;20465;-79
2024/02/12 00:10:49;;;;;;;36.23;33.33;;;;;;;;;;5099895;28;20490;-80
2024/02/12 00:13:19;;;;;;;37.03;34.20;;;;;;;;;;5099837;28;20449;-80
2024/02/12 00:15:46;;;;;;;36.57;33.77;;;;;;;;;;5100248;28;20951;-80
2024/02/12 00:18:13;;;;;;;37.83;34.70;;;;;;;;;;5055364;28;1260699;-80
2024/02/12 00:20:41;;;;;;;34.87;32.30;;;;;;;;;;5100954;28;20275;-80
2024/02/12 00:23:09;;;;;;;36.63;33.67;;;;;;;;;;5101147;28;20432;-80
2024/02/12 00:25:36;;;;;;;35.17;32.37;;;;;;;;;;5100794;28;20445;-80
2024/02/12 00:28:12;;;;;;;38.23;34.27;;;;;;;;;;5087845;28;20555;-80
2024/02/12 00:30:40;;;;;;;36.30;33.50;;;;;;;;;;5077857;28;20445;-80
2024/02/12 00:33:07;;;;;;;35.43;32.87;;;;;;;;;;5080228;28;21182;-80
2024/02/12 00:35:36;;;;;;;35.27;32.43;;;;;;;;;;5080017;28;20804;-80
2024/02/12 00:38:03;;;;;;;34.83;32.20;;;;;;;;;;5079069;28;20444;-80
2024/02/12 00:40:31;;;;;;;34.70;32.20;;;;;;;;;;5080559;28;20460;-79
2024/02/12 00:42:58;;;;;;;33.37;30.90;;;;;;;;;;5082450;28;20458;-80
2024/02/12 00:45:27;;;;;;;33.00;30.70;;;;;;;;;;5080410;28;20488;-80
2024/02/12 00:47:56;;;;;;;30.57;28.63;;;;;;;;;;5079951;28;20484;-80
2024/02/12 00:50:23;;;;;;;32.73;30.33;;;;;;;;;;5079591;28;20408;-79
2024/02/12 00:52:49;;;;;;;33.37;30.60;;;;;;;;;;5080091;28;20449;-80
2024/02/12 00:55:16;;;;;;;31.20;29.07;;;;;;;;;;5096214;28;20463;-80
2024/02/12 00:57:45;;;;;;;34.50;31.87;;;;;;;;;;5098508;28;21064;-79
2024/02/12 01:00:14;;;;;;;32.17;29.77;;;;;;;;;;5079919;28;20481;-80
2024/02/12 01:02:42;;;;;;;34.27;31.13;;;;;;;;;;5079895;28;20529;-79
2024/02/12 01:05:09;;;;;;;32.30;29.93;;;;;;;;;;5080332;28;20417;-79
2024/02/12 01:07:36;;;;;;;32.00;29.60;;;;;;;;;;5079159;28;20523;-80
2024/02/12 01:10:04;;;;;;;31.60;29.20;;;;;;;;;;5079504;28;20444;-80
2024/02/12 01:12:31;;;;;;;33.23;30.63;;;;;;;;;;5079665;28;20521;-80
2024/02/12 01:15:00;;;;;;;30.90;28.73;;;;;;;;;;5079337;28;20925;-80
2024/02/12 01:17:29;;;;;;;31.27;29.07;;;;;;;;;;5079155;28;20466;-80
2024/02/12 01:19:56;;;;;;;31.43;29.27;;;;;;;;;;5078713;28;21176;-80
2024/02/12 01:22:23;;;;;;;31.30;29.10;;;;;;;;;;5079374;28;20446;-80
2024/02/12 01:24:51;;;;;;;30.80;28.70;;;;;;;;;;5079825;28;20457;-80
2024/02/12 01:27:18;;;;;;;32.10;29.90;;;;;;;;;;5078479;28;20420;-80
2024/02/12 01:29:47;;;;;;;31.70;29.60;;;;;;;;;;5079213;28;20412;-80
2024/02/12 01:32:15;;;;;;;30.33;28.13;;;;;;;;;;5079384;28;20450;-80
2024/02/12 01:34:44;;;;;;;30.87;28.50;;;;;;;;;;5079909;28;20445;-80
2024/02/12 01:37:11;;;;;;;31.57;29.10;;;;;;;;;;5078171;28;20523;-80
2024/02/12 01:39:38;;;;;;;30.53;28.10;;;;;;;;;;5078930;28;20493;-80
2024/02/12 01:42:11;;;;;;;30.93;28.90;;;;;;;;;;5078373;28;20416;-80
2024/02/12 01:44:39;;;;;;;33.07;30.60;;;;;;;;;;5078967;28;20442;-80
2024/02/12 01:47:07;;;;;;;31.73;29.23;;;;;;;;;;5077993;28;20458;-81
2024/02/12 01:49:36;;;;;;;32.37;29.93;;;;;;;;;;5080849;28;20488;-79
2024/02/12 01:52:03;;;;;;;33.33;31.03;;;;;;;;;;5081438;28;20495;-81
2024/02/12 01:54:30;;;;;;;30.97;28.73;;;;;;;;;;5075354;28;21113;-80
2024/02/12 01:56:59;;;;;;;30.87;28.57;;;;;;;;;;5071713;28;20445;-80
2024/02/12 01:59:26;;;;;;;33.37;30.97;;;;;;;;;;5074177;28;20532;-80
2024/02/12 02:01:53;;;;;;;32.40;29.93;;;;;;;;;;5076639;28;20461;-80
2024/02/12 02:04:23;;;;;;;32.67;30.37;;;;;;;;;;5077496;28;20443;-80
2024/02/12 02:06:55;;;;;;;33.47;31.17;;;;;;;;;;5076946;28;20529;-79
2024/02/12 02:09:22;;;;;;;32.47;30.20;;;;;;;;;;5078230;28;20551;-79
2024/02/12 02:11:51;;;;;;;34.10;31.50;;;;;;;;;;5079019;28;20453;-80
2024/02/12 02:14:19;;;;;;;33.78;31.17;;;;;;;;;;5078381;28;20453;-80
2024/02/12 02:16:47;;;;;;;32.20;30.13;;;;;;;;;;5079970;28;20694;-79
2024/02/12 02:19:14;;;;;;;32.17;30.07;;;;;;;;;;5089713;28;20496;-80
2024/02/12 02:21:41;;;;;;;32.80;30.40;;;;;;;;;;5078132;28;20545;-80
2024/02/12 02:24:09;;;;;;;32.20;29.87;;;;;;;;;;5076877;28;20449;-80
2024/02/12 02:26:38;;;;;;;35.20;32.40;;;;;;;;;;5094747;28;20475;-79
2024/02/12 02:29:05;;;;;;;33.20;31.00;;;;;;;;;;5096492;28;20511;-80
2024/02/12 02:31:35;;;;;;;34.30;31.40;;;;;;;;;;5076986;28;20971;-79
2024/02/12 02:37:05;;;;;;;33.60;31.10;;;;;;;;;;5073601;28;20397;-80
2024/02/12 02:39:33;;;;;;;34.07;31.50;;;;;;;;;;5076686;28;20489;-80
2024/02/12 02:42:01;;;;;;;32.53;30.37;;;;;;;;;;5080754;28;20462;-79
2024/02/12 02:44:29;;;;;;;33.87;31.47;;;;;;;;;;5076081;28;20468;-79
2024/02/12 02:46:56;;;;;;;33.80;31.20;;;;;;;;;;5076726;28;20446;-79
2024/02/12 02:49:24;;;;;;;31.80;29.60;;;;;;;;;;5076656;28;20461;-81
2024/02/12 02:51:51;;;;;;;33.30;30.90;;;;;;;;;;5076688;28;20458;-80
2024/02/12 02:54:18;;;;;;;32.10;29.80;;;;;;;;;;5077358;28;20499;-81
2024/02/12 02:56:47;;;;;;;33.83;31.13;;;;;;;;;;5075906;28;20464;-81
2024/02/12 02:59:14;;;;;;;34.43;31.73;;;;;;;;;;5076291;28;20462;-80
2024/02/12 03:01:41;;;;;;;34.23;31.73;;;;;;;;;;5080650;28;20475;-80
2024/02/12 03:04:08;;;;;;;33.23;30.80;;;;;;;;;;5096361;28;20796;-80
2024/02/12 03:06:37;;;;;;;35.97;33.00;;;;;;;;;;5095545;28;20444;-80
2024/02/12 03:09:04;;;;;;;32.40;30.13;;;;;;;;;;5096659;28;20480;-79
2024/02/12 03:11:31;;;;;;;35.87;33.00;;;;;;;;;;5095858;28;20844;-80
2024/02/12 03:13:59;;;;;;;34.45;31.38;;;;;;;;;;5098259;28;20498;-79
2024/02/12 03:16:26;;;;;;;34.03;31.70;;;;;;;;;;5099289;28;20199;-80
2024/02/12 03:18:54;;;;;;;34.23;31.33;;;;;;;;;;5099297;28;20495;-81
2024/02/12 03:21:22;;;;;;;35.30;32.80;;;;;;;;;;5099280;28;20492;-81
2024/02/12 03:23:49;;;;;;;34.20;31.57;;;;;;;;;;5099843;28;20441;-79
2024/02/12 03:26:15;;;;;;;33.63;31.17;;;;;;;;;;5099146;28;20475;-80
2024/02/12 03:28:43;;;;;;;33.70;31.00;;;;;;;;;;5086824;28;20473;-80
2024/02/12 03:31:11;;;;;;;36.40;33.23;;;;;;;;;;5079569;28;20450;-79
2024/02/12 03:33:38;;;;;;;32.40;29.87;;;;;;;;;;5079018;28;20461;-80
2024/02/12 03:36:06;;;;;;;34.47;31.73;;;;;;;;;;5078904;28;20453;-79
2024/02/12 03:38:33;;;;;;;33.37;31.10;;;;;;;;;;5079716;28;20832;-80
2024/02/12 03:40:59;;;;;;;34.13;31.67;;;;;;;;;;5079415;28;20509;-80
2024/02/12 03:43:27;;;;;;;35.80;33.03;;;;;;;;;;5079302;28;20438;-79
2024/02/12 03:45:56;;;;;;;35.20;32.70;;;;;;;;;;5079472;28;20892;-80
2024/02/12 04:02:03;;;;;;;33.37;30.97;;;;;;;;;;5084682;28;20444;-80
2024/02/12 04:04:31;;;;;;;35.47;32.67;;;;;;;;;;5099074;28;20984;-80
2024/02/12 04:07:00;;;;;;;34.28;31.67;;;;;;;;;;5081236;28;20441;-80
2024/02/12 04:09:27;;;;;;;34.47;31.33;;;;;;;;;;5078883;28;20232;-80
2024/02/12 04:11:55;;;;;;;36.63;33.60;;;;;;;;;;5079149;28;20442;-80
2024/02/12 04:14:22;;;;;;;35.03;32.40;;;;;;;;;;5078923;28;20456;-81
2024/02/12 04:16:51;;;;;;;37.63;34.87;;;;;;;;;;5078476;28;20441;-80
2024/02/12 04:19:18;;;;;;;39.43;36.60;;;;;;;;;;5078883;28;20513;-80
2024/02/12 04:21:47;;;;;;;41.30;38.00;;;;;;;;;;5079315;28;20572;-80
2024/02/12 04:24:14;;;;;;;37.10;34.30;;;;;;;;;;5078632;28;20457;-80
2024/02/12 04:26:42;;;;;;;40.23;37.10;;;;;;;;;;5077559;28;20519;-81
2024/02/12 04:29:09;;;;;;;40.90;37.70;;;;;;;;;;5096108;28;20504;-80
2024/02/12 04:31:36;;;;;;;39.77;36.53;;;;;;;;;;5099508;28;20416;-80
2024/02/12 04:34:07;;;;;;;39.00;35.50;;;;;;;;;;5098295;28;20988;-80
2024/02/12 04:36:39;;;;;;;41.70;38.33;;;;;;;;;;5097849;28;20461;-80
2024/02/12 04:39:08;;;;;;;41.80;38.50;;;;;;;;;;5098636;28;20984;-79
2024/02/12 04:41:39;;;;;;;38.63;35.67;;;;;;;;;;5098204;28;20484;-80
2024/02/12 04:44:06;;;;;;;39.77;36.50;;;;;;;;;;5098513;28;20449;-80
2024/02/12 04:46:34;;;;;;;41.10;37.70;;;;;;;;;;5098691;28;20574;-81
2024/02/12 04:49:01;;;;;;;40.20;37.20;;;;;;;;;;5098727;28;20538;-80
2024/02/12 04:51:28;;;;;;;40.60;37.47;;;;;;;;;;5099179;28;20445;-79
2024/02/12 04:53:54;;;;;;;41.73;38.43;;;;;;;;;;5097720;28;20460;-80
2024/02/12 04:56:23;;;;;;;41.10;37.17;;;;;;;;;;5090573;28;20461;-80
2024/02/12 04:58:50;;;;;;;41.53;38.30;;;;;;;;;;5082779;28;20467;-81
2024/02/12 05:01:17;;;;;;;42.40;38.90;;;;;;;;;;5101274;28;20882;-81
2024/02/12 05:03:44;;;;;;;37.83;35.00;;;;;;;;;;5082525;28;20438;-79
2024/02/12 05:06:16;;;;;;;40.80;37.37;;;;;;;;;;5070801;28;20438;-80
2024/02/12 05:08:44;;;;;;;39.30;35.80;;;;;;;;;;5072672;28;20531;-80
2024/02/12 05:11:11;;;;;;;41.80;38.20;;;;;;;;;;5074358;28;20415;-80
2024/02/12 05:13:39;;;;;;;38.27;35.23;;;;;;;;;;5075394;28;20441;-80
2024/02/12 05:16:08;;;;;;;40.00;36.70;;;;;;;;;;5076248;28;20812;-80
2024/02/12 05:24:04;;;;;;;40.47;37.07;;;;;;;;;;5077774;28;20500;-80
2024/02/12 05:26:31;;;;;;;40.45;36.67;;;;;;;;;;5077307;28;20441;-80
2024/02/12 05:29:00;;;;;;;43.50;39.73;;;;;;;;;;5077360;28;20273;-80
2024/02/12 05:31:27;;;;;;;45.13;41.40;;;;;;;;;;5077759;28;20438;-80
2024/02/12 05:33:54;;;;;;;44.73;41.00;;;;;;;;;;5077253;28;20457;-80
2024/02/12 05:36:21;;;;;;;45.57;41.77;;;;;;;;;;5076445;28;20430;-80
2024/02/12 05:38:50;;;;;;;47.07;42.47;;;;;;;;;;5076835;28;21008;-80
2024/02/12 05:41:17;;;;;;;44.83;41.10;;;;;;;;;;5076956;28;21238;-80
2024/02/12 05:43:43;;;;;;;45.63;41.27;;;;;;;;;;5077344;28;20495;-80
2024/02/12 05:46:12;;;;;;;43.90;40.10;;;;;;;;;;5076434;28;20468;-81
2024/02/12 05:48:39;;;;;;;41.63;37.57;;;;;;;;;;5077454;28;20458;-81
2024/02/12 05:51:09;;;;;;;41.57;37.40;;;;;;;;;;5077006;28;20446;-80
2024/02/12 05:53:36;;;;;;;42.03;37.93;;;;;;;;;;5076582;28;20457;-81
2024/02/12 05:56:03;;;;;;;44.30;40.20;;;;;;;;;;5076695;28;20441;-82
2024/02/12 05:58:30;;;;;;;41.80;38.13;;;;;;;;;;5076522;28;20454;-80
2024/02/12 06:00:58;;;;;;;45.80;41.40;;;;;;;;;;5077124;28;20481;-80
2024/02/12 06:03:26;;;;;;;42.30;38.00;;;;;;;;;;5077474;28;20521;-80
2024/02/12 06:05:53;;;;;;;42.30;38.00;;;;;;;;;;5076567;28;20250;-80
2024/02/12 06:08:20;;;;;;;43.93;39.73;;;;;;;;;;5082480;28;20469;-80
2024/02/12 06:10:47;;;;;;;45.83;39.80;;;;;;;;;;5083189;28;20481;-81
2024/02/12 06:13:14;;;;;;;41.67;37.73;;;;;;;;;;5077119;28;20504;-80
2024/02/12 06:15:42;;;;;;;44.10;39.50;;;;;;;;;;5076828;28;20456;-79
2024/02/12 06:18:09;;;;;;;39.83;36.40;;;;;;;;;;5076125;28;20490;-80
2024/02/12 06:20:38;;;;;;;39.67;35.97;;;;;;;;;;5077010;28;20481;-80
2024/02/12 06:23:05;;;;;;;43.73;39.57;;;;;;;;;;5076430;28;20449;-79
2024/02/12 06:25:32;;;;;;;46.57;41.50;;;;;;;;;;5078065;28;21258;-80
2024/02/12 06:27:59;;;;;;;41.60;37.50;;;;;;;;;;5076568;28;20473;-81
2024/02/12 06:30:26;;;;;;;46.30;41.70;;;;;;;;;;5077040;28;20450;-80
2024/02/12 06:32:53;;;;;;;46.93;42.20;;;;;;;;;;5076540;28;20445;-80
2024/02/12 06:35:20;;;;;;;43.57;39.40;;;;;;;;;;5076354;28;20775;-80
2024/02/12 06:37:49;;;;;;;47.43;42.83;;;;;;;;;;5076726;28;20488;-80
2024/02/12 06:40:16;;;;;;;44.17;40.00;;;;;;;;;;5077050;28;20441;-81
2024/02/12 06:42:43;;;;;;;44.40;39.90;;;;;;;;;;5077376;28;20444;-80
2024/02/12 06:45:11;;;;;;;45.43;41.10;;;;;;;;;;5076582;28;20495;-81
2024/02/12 06:47:38;;;;;;;42.80;38.57;;;;;;;;;;5076057;28;20474;-80
2024/02/12 06:50:06;;;;;;;39.13;35.67;;;;;;;;;;5080527;28;20441;-80
2024/02/12 06:52:33;;;;;;;44.43;39.60;;;;;;;;;;5082144;28;20423;-81
2024/02/12 06:55:02;;;;;;;44.13;40.00;;;;;;;;;;5084674;28;20445;-82
2024/02/12 06:57:29;;;;;;;41.70;37.47;;;;;;;;;;5086410;28;20439;-82
2024/02/12 06:59:57;;;;;;;42.00;37.50;;;;;;;;;;5083837;28;20438;-81
2024/02/12 07:02:23;;;;;;;43.10;38.30;;;;;;;;;;5096375;28;20817;-81
2024/02/12 07:04:50;;;;;;;43.70;39.60;;;;;;;;;;5096298;28;20457;-83
2024/02/12 07:07:18;;;;;;;46.67;42.00;;;;;;;;;;5097078;28;20454;-82
2024/02/12 07:09:45;;;;;;;48.93;42.40;;;;;;;;;;5086057;28;20424;-82
2024/02/12 07:12:14;;;;;;;46.67;41.80;;;;;;;;;;5094325;28;20457;-77
2024/02/12 07:14:41;;;;;;;42.77;38.33;;;;;;;;;;5077889;28;20503;-80
2024/02/12 07:17:10;;;;;;;46.77;41.87;;;;;;;;;;5076881;28;20471;-82
2024/02/12 07:19:36;;;;;;;46.37;41.57;;;;;;;;;;5077071;28;20442;-81
2024/02/12 07:22:04;;;;;;;46.53;41.63;;;;;;;;;;5076410;28;20477;-78
2024/02/12 07:24:31;;;;;;;47.17;41.17;;;;;;;;;;5077540;28;20475;-81
2024/02/12 07:26:57;;;;;;;47.83;41.77;;;;;;;;;;5075932;28;20475;-81
2024/02/12 07:29:26;;;;;;;45.23;40.07;;;;;;;;;;5077092;28;20452;-81
2024/02/12 07:31:53;;;;;;;48.30;42.73;;;;;;;;;;5077137;28;20416;-82
2024/02/12 07:34:20;;;;;;;58.70;43.83;;;;;;;;;;5076039;28;20450;-79
2024/02/12 07:36:47;;;;;;;46.63;41.37;;;;;;;;;;5075398;28;20453;-80
2024/02/12 07:39:16;;;;;;;50.00;42.53;;;;;;;;;;5076216;28;20522;-81
2024/02/12 07:41:43;;;;;;;47.40;42.53;;;;;;;;;;5080096;28;20476;-81
2024/02/12 07:44:11;;;;;;;44.40;39.67;;;;;;;;;;5096296;28;20940;-81
2024/02/12 07:46:40;;;;;;;47.60;42.47;;;;;;;;;;5093012;28;20770;-81
2024/02/12 07:49:07;;;;;;;47.67;42.57;;;;;;;;;;5076308;28;20478;-80
2024/02/12 07:51:34;;;;;;;54.80;39.77;;;;;;;;;;5077638;28;20450;-81
2024/02/12 07:54:01;;;;;;;44.53;39.93;;;;;;;;;;5078235;28;20441;-81
2024/02/12 07:56:28;;;;;;;44.83;40.10;;;;;;;;;;5093839;28;20427;-81
2024/02/12 07:58:55;;;;;;;46.97;39.73;;;;;;;;;;5084331;28;20466;-87
2024/02/12 08:01:23;;;;;;;45.80;37.80;;;;;;;;;;5094772;28;20463;-81
2024/02/12 08:03:52;;;;;;;46.57;41.67;;;;;;;;;;5100775;28;20433;-83
2024/02/12 08:06:19;;;;;;;41.80;37.37;;;;;;;;;;5098489;28;20433;-80
2024/02/12 08:08:47;;;;;;;48.23;40.03;;;;;;;;;;5101077;28;20464;-81
2024/02/12 08:11:14;;;;;;;45.20;40.33;;;;;;;;;;5085723;28;20461;-81
2024/02/12 08:13:43;;;;;;;42.27;38.20;;;;;;;;;;5079791;28;20421;-81
2024/02/12 08:16:10;;;;;;;50.57;42.60;;;;;;;;;;5078929;28;20438;-81
2024/02/12 08:18:37;;;;;;;47.60;38.50;;;;;;;;;;5080641;28;20889;-80
2024/02/12 08:21:05;;;;;;;50.63;44.50;;;;;;;;;;5080628;28;20453;-80
2024/02/12 08:23:33;;;;;;;46.90;40.73;;;;;;;;;;5080313;28;20549;-79
2024/02/12 08:26:04;;;;;;;54.40;42.87;;;;;;;;;;5080100;28;20467;-80
2024/02/12 08:28:31;;;;;;;44.83;39.37;;;;;;;;;;5079981;28;20473;-81
2024/02/12 08:30:58;;;;;;;47.93;42.80;;;;;;;;;;5080298;28;20442;-81
2024/02/12 08:33:26;;;;;;;47.83;42.13;;;;;;;;;;5080795;28;20770;-81
2024/02/12 08:35:53;;;;;;;50.37;41.63;;;;;;;;;;5088259;28;20461;-81
2024/02/12 08:38:22;;;;;;;50.83;43.97;;;;;;;;;;5077326;28;20461;-80
2024/02/12 08:40:50;;;;;;;45.93;40.50;;;;;;;;;;5075125;28;20453;-81
2024/02/12 08:43:18;;;;;;;45.10;40.30;;;;;;;;;;5075060;28;20521;-80
2024/02/12 08:45:47;;;;;;;52.30;45.07;;;;;;;;;;5083847;28;20514;-83
2024/02/12 08:48:14;;;;;;;49.27;41.60;;;;;;;;;;5086308;28;20475;-83
2024/02/12 08:50:41;;;;;;;48.60;42.60;;;;;;;;;;5076315;28;20503;-81
2024/02/12 08:53:08;;;;;;;52.90;42.97;;;;;;;;;;5076971;28;20784;-81
2024/02/12 08:55:38;;;;;;;47.10;41.53;;;;;;;;;;5076842;28;20827;-79
2024/02/12 08:58:05;;;;;;;40.20;35.77;;;;;;;;;;5081835;28;20473;-80
2024/02/12 09:00:35;;;;;;;48.67;43.47;;;;;;;;;;5080795;28;20428;-81
2024/02/12 09:03:04;;;;;;;43.73;39.00;;;;;;;;;;5075836;28;20470;-82
2024/02/12 09:05:31;;;;;;;44.63;39.87;;;;;;;;;;5080543;28;20940;-79
2024/02/12 09:07:58;;;;;;;33.00;30.17;;;;;;;;;;5079082;28;20451;-78
2024/02/12 09:10:25;;;;;;;46.00;37.27;;;;;;;;;;5083200;28;20452;-79
2024/02/12 09:12:54;;;;;;;49.00;41.80;;;;;;;;;;5095565;28;20433;-79
2024/02/12 09:15:21;;;;;;;46.77;38.47;;;;;;;;;;5097928;28;20445;-79
2024/02/12 09:17:48;;;;;;;37.70;33.67;;;;;;;;;;5087442;28;20485;-77
2024/02/12 09:20:15;;;;;;;41.33;36.67;;;;;;;;;;5078888;28;20454;-78
2024/02/12 09:22:42;;;;;;;31.53;28.73;;;;;;;;;;5081374;28;20488;-77
2024/02/12 09:25:11;;;;;;;44.03;38.97;;;;;;;;;;5095203;28;20449;-78
2024/02/12 09:27:38;;;;;;;42.80;36.43;;;;;;;;;;5096454;28;20461;-79
2024/02/12 09:30:09;;;;;;;46.63;39.93;;;;;;;;;;5079451;28;20450;-78
2024/02/12 09:32:37;;;;;;;39.43;34.03;;;;;;;;;;5080543;28;20441;-79
2024/02/12 09:35:04;;;;;;;37.53;32.67;;;;;;;;;;5079852;28;20437;-79
2024/02/12 09:37:32;;;;;;;45.67;38.33;;;;;;;;;;5082673;28;20528;-78
2024/02/12 09:40:02;;;;;;;44.73;35.47;;;;;;;;;;5072237;28;20540;-77
2024/02/12 09:42:31;;;;;;;49.10;41.13;;;;;;;;;;5071186;28;20476;-77
2024/02/12 09:44:59;;;;;;;51.38;42.45;;;;;;;;;;5070821;28;20495;-76
2024/02/12 09:47:31;;;;;;;53.33;42.20;;;;;;;;;;5069970;28;20722;-77
2024/02/12 09:49:59;;;;;;;48.30;39.97;;;;;;;;;;5071052;28;20434;-76
2024/02/12 09:52:27;;;;;;;47.23;40.73;;;;;;;;;;5071070;28;20446;-78
2024/02/12 09:54:54;;;;;;;43.33;38.50;;;;;;;;;;5070760;28;20453;-77
2024/02/12 09:57:21;;;;;;;42.97;38.20;;;;;;;;;;5070025;28;20511;-77
2024/02/12 09:59:49;;;;;;;48.93;39.40;;;;;;;;;;5071752;28;20495;-78
2024/02/12 10:02:16;;;;;;;49.43;39.80;;;;;;;;;;5073932;28;20550;-79
2024/02/12 10:04:44;;;;;;;41.03;36.67;;;;;;;;;;5074711;28;20775;-89
2024/02/12 10:07:11;;;;;;;44.03;38.97;;;;;;;;;;5073466;28;20453;-89
2024/02/12 10:09:38;;;;;;;48.80;42.00;;;;;;;;;;5076545;28;20442;-88
2024/02/12 10:12:06;;;;;;;46.20;38.90;;;;;;;;;;5075901;28;20442;-88
2024/02/12 10:14:33;;;;;;;40.47;36.17;;;;;;;;;;5078276;28;20930;-81
2024/02/12 10:17:00;;;;;;;40.93;36.47;;;;;;;;;;5078468;28;20482;-81
2024/02/12 10:19:28;;;;;;;38.17;32.10;;;;;;;;;;5077419;28;20477;-81
2024/02/12 10:21:58;;;;;;;43.53;38.17;;;;;;;;;;5077114;28;20488;-80
2024/02/12 10:24:27;;;;;;;37.23;32.00;;;;;;;;;;5081925;28;20442;-81
2024/02/12 10:26:54;;;;;;;43.37;36.77;;;;;;;;;;5086819;28;20441;-81
2024/02/12 10:29:21;;;;;;;43.70;37.83;;;;;;;;;;5091634;28;20476;-81
2024/02/12 10:31:48;;;;;;;42.43;35.63;;;;;;;;;;5083441;28;20450;-84
2024/02/12 10:34:17;;;;;;;42.03;32.93;;;;;;;;;;5089672;28;20441;-80
2024/02/12 10:36:47;;;;;;;34.50;31.10;;;;;;;;;;5090426;28;20428;-81
2024/02/12 10:39:17;;;;;;;40.70;36.40;;;;;;;;;;5078147;28;20848;-87
2024/02/12 10:41:46;;;;;;;36.17;32.47;;;;;;;;;;5078488;28;20446;-88
2024/02/12 10:44:14;;;;;;;39.60;35.30;;;;;;;;;;5079104;28;20507;-89
2024/02/12 10:46:41;;;;;;;40.03;35.67;;;;;;;;;;5079500;28;20483;-88
2024/02/12 10:49:08;;;;;;;42.30;34.37;;;;;;;;;;5080763;28;20458;-79
2024/02/12 10:51:36;;;;;;;39.97;35.40;;;;;;;;;;5074495;28;20437;-77
2024/02/12 10:54:03;;;;;;;43.67;34.57;;;;;;;;;;5074180;28;20442;-77
2024/02/12 10:56:34;;;;;;;40.50;36.10;;;;;;;;;;5073744;28;20420;-78
2024/02/12 10:59:01;;;;;;;34.30;30.37;;;;;;;;;;5080693;28;20541;-77
2024/02/12 11:01:29;;;;;;;35.60;31.93;;;;;;;;;;5094579;28;20441;-77
2024/02/12 11:03:59;;;;;;;40.70;36.60;;;;;;;;;;5097982;28;20487;-85
2024/02/12 11:06:27;;;;;;;37.93;33.13;;;;;;;;;;5096018;28;20428;-77
2024/02/12 11:08:56;;;;;;;35.90;32.17;;;;;;;;;;5094882;28;20824;-77
2024/02/12 11:11:23;;;;;;;38.90;34.17;;;;;;;;;;5094881;28;20444;-78
2024/02/12 11:13:58;;;;;;;36.80;31.60;;;;;;;;;;5094516;28;20444;-78
2024/02/12 11:16:29;;;;;;;40.70;35.60;;;;;;;;;;5094591;28;20429;-77
2024/02/12 11:18:58;;;;;;;33.80;30.60;;;;;;;;;;5094347;28;20537;-78
2024/02/12 11:21:28;;;;;;;28.30;25.47;;;;;;;;;;5094599;28;20454;-78
2024/02/12 11:24:02;;;;;;;39.37;34.70;;;;;;;;;;5094452;28;20476;-78
2024/02/12 11:26:33;;;;;;;41.07;36.63;;;;;;;;;;5094064;28;20433;-78
2024/02/12 11:29:05;;;;;;;40.73;36.33;;;;;;;;;;5094265;28;20820;-78
2024/02/12 11:31:33;;;;;;;39.57;35.27;;;;;;;;;;5094176;28;20512;-78
2024/02/12 11:34:00;;;;;;;42.63;37.73;;;;;;;;;;5093023;28;20452;-78
2024/02/12 11:36:29;;;;;;;52.20;39.00;;;;;;;;;;5093269;28;20932;-78
2024/02/12 11:38:58;;;;;;;43.20;37.27;;;;;;;;;;5074249;28;20444;-78
2024/02/12 11:41:25;;;;;;;41.23;36.70;;;;;;;;;;5074087;28;20431;-78
2024/02/12 11:43:53;;;;;;;39.67;35.33;;;;;;;;;;5074038;28;20468;-78
2024/02/12 11:46:21;;;;;;;38.60;34.50;;;;;;;;;;5074158;28;20450;-79
2024/02/12 11:48:49;;;;;;;52.10;40.53;;;;;;;;;;5073770;28;20872;-79
2024/02/12 11:51:20;;;;;;;247.90;122.27;;;;;;;;;;5073201;28;20536;-79
2024/02/12 11:53:50;;;;;;;327.83;148.33;;;;;;;;;;5073219;28;20926;-78
2024/02/12 11:56:19;;;;;;;125.00;76.17;;;;;;;;;;5089726;28;20456;-79
2024/02/12 11:58:46;;;;;;;113.70;61.50;;;;;;;;;;5092897;28;20484;-77
2024/02/12 12:01:13;;;;;;;127.73;71.50;;;;;;;;;;5093207;28;20453;-78
2024/02/12 12:03:41;;;;;;;118.17;68.33;;;;;;;;;;5093803;28;20496;-79
2024/02/12 12:06:11;;;;;;;92.00;52.93;;;;;;;;;;5093489;28;20502;-78
2024/02/12 12:08:38;;;;;;;78.87;52.97;;;;;;;;;;5120315;28;20460;-77
2024/02/12 12:11:06;;;;;;;94.57;70.30;;;;;;;;;;5113538;28;20450;-78
2024/02/12 12:13:33;;;;;;;62.63;51.10;;;;;;;;;;5074578;28;20459;-78
2024/02/12 12:16:00;;;;;;;40.50;36.17;;;;;;;;;;5070755;28;20442;-79
2024/02/12 12:18:27;;;;;;;75.30;64.93;;;;;;;;;;5071870;28;20515;-79
2024/02/12 12:20:55;;;;;;;52.00;46.63;;;;;;;;;;5072484;28;20446;-78
2024/02/12 12:23:22;;;;;;;36.87;33.27;;;;;;;;;;5071449;28;20460;-78
2024/02/12 12:25:54;;;;;;;41.23;30.30;;;;;;;;;;5072216;28;20945;-77
2024/02/12 12:28:23;;;;;;;33.97;30.33;;;;;;;;;;5072160;28;20445;-78
2024/02/12 12:30:50;;;;;;;25.37;23.37;;;;;;;;;;5073645;28;20457;-80
2024/02/12 12:33:17;;;;;;;26.60;24.20;;;;;;;;;;5073996;28;20430;-78
2024/02/12 12:35:44;;;;;;;28.37;25.77;;;;;;;;;;5073866;28;21212;-79
2024/02/12 12:38:14;;;;;;;31.60;28.43;;;;;;;;;;5083974;28;20976;-79
2024/02/12 12:40:44;;;;;;;28.90;26.50;;;;;;;;;;5093751;28;20459;-79
2024/02/12 12:43:11;;;;;;;30.00;27.30;;;;;;;;;;5093962;28;20529;-80
2024/02/12 12:45:38;;;;;;;28.67;26.50;;;;;;;;;;5093749;28;20909;-79
2024/02/12 12:48:07;;;;;;;29.83;27.13;;;;;;;;;;5093370;28;20465;-78
2024/02/12 12:50:34;;;;;;;27.30;25.10;;;;;;;;;;5093399;28;20454;-79
2024/02/12 12:53:02;;;;;;;30.27;27.67;;;;;;;;;;5075317;28;20446;-79
2024/02/12 12:55:31;;;;;;;32.30;28.97;;;;;;;;;;5074885;28;20453;-79
2024/02/12 12:57:59;;;;;;;30.97;28.17;;;;;;;;;;5073084;28;20954;-79
2024/02/12 13:00:28;;;;;;;31.40;28.10;;;;;;;;;;5073549;28;20450;-79
2024/02/12 13:02:55;;;;;;;29.90;27.30;;;;;;;;;;5074237;28;20470;-80
2024/02/12 13:05:23;;;;;;;30.70;27.87;;;;;;;;;;5073767;28;20459;-79
2024/02/12 13:07:50;;;;;;;31.63;28.70;;;;;;;;;;5073750;28;20466;-80
2024/02/12 13:10:17;;;;;;;31.50;28.70;;;;;;;;;;5092831;28;20455;-80
2024/02/12 13:12:46;;;;;;;30.87;28.13;;;;;;;;;;5094324;28;20793;-78
2024/02/12 13:15:14;;;;;;;30.83;26.70;;;;;;;;;;5094167;28;20457;-80
2024/02/12 13:17:43;;;;;;;29.70;27.10;;;;;;;;;;5093088;28;20508;-80
2024/02/12 13:20:21;;;;;;;31.20;28.47;;;;;;;;;;5075139;28;20545;-79
2024/02/12 13:22:52;;;;;;;32.07;29.27;;;;;;;;;;5072529;28;20463;-78
2024/02/12 13:25:19;;;;;;;31.53;28.60;;;;;;;;;;5073099;28;21140;-79
2024/02/12 13:27:47;;;;;;;29.10;26.50;;;;;;;;;;5072195;28;20425;-80
2024/02/12 13:30:15;;;;;;;30.20;27.70;;;;;;;;;;5073583;28;20505;-78
2024/02/12 13:32:44;;;;;;;31.90;28.90;;;;;;;;;;5073413;28;20512;-79
2024/02/12 13:35:11;;;;;;;29.87;27.13;;;;;;;;;;5074396;28;20460;-81
2024/02/12 13:37:38;;;;;;;30.90;28.20;;;;;;;;;;5073687;28;20444;-79
2024/02/12 13:40:08;;;;;;;30.93;27.83;;;;;;;;;;5074610;28;20453;-80
2024/02/12 13:42:36;;;;;;;30.53;27.90;;;;;;;;;;5073841;28;20526;-78
2024/02/12 13:45:06;;;;;;;31.47;28.60;;;;;;;;;;5075701;28;20420;-81
2024/02/12 13:47:33;;;;;;;32.73;29.80;;;;;;;;;;5074806;28;20484;-79
2024/02/12 13:50:00;;;;;;;33.33;30.33;;;;;;;;;;5075101;28;20445;-81
2024/02/12 13:52:27;;;;;;;31.57;28.37;;;;;;;;;;5075124;28;20469;-80
2024/02/12 13:54:55;;;;;;;31.30;28.60;;;;;;;;;;5075268;28;20408;-81
2024/02/12 13:57:24;;;;;;;32.23;29.43;;;;;;;;;;5072878;28;20442;-79
2024/02/12 13:59:52;;;;;;;31.30;28.50;;;;;;;;;;5074280;28;20519;-79
2024/02/12 14:02:21;;;;;;;32.23;29.63;;;;;;;;;;5074809;28;20458;-79
2024/02/12 14:04:48;;;;;;;31.33;28.60;;;;;;;;;;5073344;28;20992;-79
2024/02/12 14:07:16;;;;;;;33.40;30.40;;;;;;;;;;5073398;28;20446;-80
2024/02/12 14:09:43;;;;;;;33.00;30.20;;;;;;;;;;5074802;28;20450;-79
2024/02/12 14:12:11;;;;;;;31.43;28.53;;;;;;;;;;5073675;28;20430;-78
2024/02/12 14:14:38;;;;;;;34.03;31.03;;;;;;;;;;5073006;28;21036;-79
2024/02/12 14:17:06;;;;;;;31.83;28.80;;;;;;;;;;5072818;28;20438;-80
2024/02/12 14:19:39;;;;;;;30.97;28.40;;;;;;;;;;5073207;28;20468;-79
2024/02/12 14:22:07;;;;;;;31.70;28.60;;;;;;;;;;5073785;28;20496;-83
2024/02/12 14:24:35;;;;;;;29.47;26.67;;;;;;;;;;5072424;28;20486;-83
2024/02/12 14:27:02;;;;;;;30.80;28.13;;;;;;;;;;5071557;28;20442;-78
2024/02/12 14:29:30;;;;;;;31.83;29.00;;;;;;;;;;5072191;28;20502;-81
2024/02/12 14:31:57;;;;;;;33.40;30.07;;;;;;;;;;5073188;28;20532;-82
2024/02/12 14:34:24;;;;;;;30.60;27.87;;;;;;;;;;5074563;28;20495;-78
2024/02/12 14:36:52;;;;;;;30.53;27.70;;;;;;;;;;5073147;28;20458;-81
2024/02/12 14:39:20;;;;;;;31.23;28.60;;;;;;;;;;5074484;28;20455;-81
2024/02/12 14:41:47;;;;;;;30.40;27.90;;;;;;;;;;5074307;28;20454;-78